Terminal Aerodrome Forecast
Issued by NWS Upton, NY

Current Version | Previous Version | Text Only | Print | Product List | Glossary On
Versions: 1 2 3 4 5 6 7 8 9 10 11 12 13 14 15 16 17 18 19 20 21 22 23 24 25 26
272
FTUS41 KOKX 250537
TAFJFK
TAF
KJFK 250537Z 2506/2612 17005KT P6SM SCT150 BKN250
     FM251000 22005KT P6SM VCTS SCT060CB BKN120
     FM251300 21008KT 5SM HZ BKN040 BKN070
     FM252000 18012KT P6SM BKN070 BKN250 PROB30 2520/2524 4SM TSRA
      BKN040CB
     FM260000 26008KT P6SM BKN090 BKN250 PROB30 2600/2603 4SM TSRA
      BKN040CB BKN090
     FM260300 23007KT P6SM SCT100 BKN250
     FM260700 26007KT P6SM FEW130 SCT250
     FM261000 30006KT P6SM SCT250=

USA.gov is the U.S. government's official web portal to all federal, state and local government web resources and services.